Time;durP1;ratioP1;P1;durP2;ratioP2;P2;SDS_P1;SDS_P2;PMS_P1;PMS_P2;Temp;Humidity;BMP_temperature;BMP_pressure;BME280_temperature;BME280_humidity;BME280_pressure;Samples;Min_cycle;Max_cycle;Signal;HPM_P1;HPM_P2
2022/11/01 00:01:24;;;;;;;0.00;0.00;;;;;;;15.43;92.55;98870.81;5091502;28;20081;-46
2022/11/01 00:03:50;;;;;;;6.60;2.10;;;;;;;15.41;92.82;98877.38;5091533;28;20024;-46
2022/11/01 00:06:16;;;;;;;0.75;0.75;;;;;;;15.36;92.79;98868.28;5091528;28;20024;-46
2022/11/01 00:08:41;;;;;;;3.63;1.35;;;;;;;15.35;93.08;98863.22;5091516;28;20031;-46
2022/11/01 00:11:11;;;;;;;0.35;0.35;;;;;;;15.31;93.26;98884.03;5090119;28;20066;-46
2022/11/01 00:13:37;;;;;;;0.10;0.10;;;;;;;15.28;93.46;98888.97;5091436;28;20099;-46
2022/11/01 00:16:02;;;;;;;1.08;1.00;;;;;;;15.28;94.07;98908.28;5090022;28;20119;-46
2022/11/01 00:18:28;;;;;;;0.22;0.10;;;;;;;15.27;94.38;98919.91;5091157;28;20527;-46
2022/11/01 00:20:54;;;;;;;0.00;0.00;;;;;;;15.34;95.10;98928.53;5091293;28;20113;-46
2022/11/01 00:23:19;;;;;;;0.00;0.00;;;;;;;15.38;95.35;98932.34;5091311;28;20028;-47
2022/11/01 00:25:45;;;;;;;0.00;0.00;;;;;;;15.53;96.21;98960.22;5092397;28;20126;-47
2022/11/01 00:28:11;;;;;;;0.10;0.10;;;;;;;15.77;97.36;98969.88;5094942;28;20111;-47
2022/11/01 00:30:38;;;;;;;0.08;0.08;;;;;;;16.11;98.40;98969.31;5094884;28;20024;-47
2022/11/01 00:33:05;;;;;;;1.08;0.98;;;;;;;16.45;98.96;98978.31;5093554;28;20024;-47
2022/11/01 00:35:31;;;;;;;1.10;1.10;;;;;;;16.54;98.80;98992.00;5094787;28;20028;-47
2022/11/01 00:37:58;;;;;;;0.00;0.00;;;;;;;16.52;98.71;98994.91;5094670;28;20454;-47
2022/11/01 00:40:24;;;;;;;0.08;0.08;;;;;;;16.57;99.19;98991.56;5094703;28;20016;-47
2022/11/01 00:42:49;;;;;;;0.00;0.00;;;;;;;16.59;99.34;98994.78;5093386;28;20390;-47
2022/11/01 00:45:15;;;;;;;0.00;0.00;;;;;;;16.55;99.38;98998.94;5093323;28;20070;-46
2022/11/01 00:47:41;;;;;;;3.30;2.30;;;;;;;16.60;99.90;99006.19;5093252;28;20024;-47
2022/11/01 00:50:07;;;;;;;2.60;1.80;;;;;;;16.62;99.81;99020.00;5093286;28;20017;-47
2022/11/01 00:52:33;;;;;;;0.00;0.00;;;;;;;16.63;100.00;99022.44;5094743;28;20097;-47
2022/11/01 00:54:58;;;;;;;0.13;0.13;;;;;;;16.56;100.00;99019.91;5094442;28;20490;-47
2022/11/01 00:57:24;;;;;;;0.00;0.00;;;;;;;16.60;100.00;99027.38;5094329;28;20032;-47
2022/11/01 00:59:50;;;;;;;0.43;0.43;;;;;;;16.60;100.00;99011.47;5092995;28;20024;-47
2022/11/01 01:02:15;;;;;;;0.00;0.00;;;;;;;16.49;99.21;99005.16;5094382;28;20386;-47
2022/11/01 01:04:42;;;;;;;0.00;0.00;;;;;;;16.36;99.07;98999.06;5094326;28;20107;-47
2022/11/01 01:07:11;;;;;;;0.00;0.00;;;;;;;16.25;98.80;98999.03;5094088;28;20571;-46
2022/11/01 01:09:36;;;;;;;0.00;0.00;;;;;;;16.24;99.31;98997.41;5094173;28;20038;-47
2022/11/01 01:12:02;;;;;;;0.65;0.65;;;;;;;16.16;99.19;98994.09;5092875;28;20424;-46
2022/11/01 01:14:28;;;;;;;0.20;0.20;;;;;;;16.18;99.59;98992.03;5094024;28;20028;-47
2022/11/01 01:16:54;;;;;;;0.28;0.28;;;;;;;16.30;100.00;98999.19;5092355;28;20044;-47
2022/11/01 01:19:19;;;;;;;0.35;0.35;;;;;;;16.45;100.00;98996.84;5094078;28;20109;-47
2022/11/01 01:21:45;;;;;;;0.00;0.00;;;;;;;16.46;100.00;98992.34;5092564;28;20017;-47
2022/11/01 01:24:11;;;;;;;0.17;0.17;;;;;;;16.52;100.00;98992.25;5093888;28;20028;-47
2022/11/01 01:26:36;;;;;;;0.00;0.00;;;;;;;16.20;100.00;98988.31;5092556;28;20035;-47
2022/11/01 01:29:02;;;;;;;0.00;0.00;;;;;;;16.13;100.00;98994.53;5093775;28;20036;-47
2022/11/01 01:31:28;;;;;;;0.00;0.00;;;;;;;16.17;100.00;98987.75;5093714;28;20076;-47
2022/11/01 01:33:53;;;;;;;0.00;0.00;;;;;;;15.94;100.00;98985.88;5093673;28;20024;-47
2022/11/01 01:36:19;;;;;;;0.00;0.00;;;;;;;15.74;99.48;98996.78;5092206;28;20102;-47
2022/11/01 01:38:44;;;;;;;0.05;0.05;;;;;;;15.68;99.98;98988.91;5093486;28;20024;-47
2022/11/01 01:43:54;;;;;;;0.00;0.00;;;;;;;15.75;100.00;98994.94;5093784;28;20580;-47
2022/11/01 01:46:20;;;;;;;0.47;0.20;;;;;;;15.75;100.00;98998.41;5093482;28;20028;-46
2022/11/01 01:48:52;;;;;;;0.00;0.00;;;;;;;15.73;100.00;99003.09;5092142;28;20371;-47
2022/11/01 01:51:23;;;;;;;0.00;0.00;;;;;;;15.67;100.00;98997.88;5093436;28;20070;-46
2022/11/01 01:53:52;;;;;;;0.00;0.00;;;;;;;15.61;100.00;99004.84;5093395;28;20028;-47
2022/11/01 01:56:28;;;;;;;2.08;1.88;;;;;;;15.57;100.00;99001.88;5093237;28;20020;-46
2022/11/01 01:59:06;;;;;;;0.32;0.32;;;;;;;15.47;100.00;98993.66;5093148;28;20109;-47
2022/11/01 02:01:35;;;;;;;1.02;0.98;;;;;;;15.45;100.00;98992.28;5093230;28;20099;-46
2022/11/01 02:04:19;;;;;;;0.55;0.52;;;;;;;15.48;100.00;98986.53;5093117;28;20377;-46
2022/11/01 02:06:46;;;;;;;0.80;0.80;;;;;;;15.49;100.00;98982.84;5093124;28;20024;-45
2022/11/01 02:09:17;;;;;;;1.15;1.08;;;;;;;15.35;100.00;98990.16;5093076;28;20028;-46
2022/11/01 02:11:42;;;;;;;2.78;2.08;;;;;;;15.39;100.00;98980.75;5093081;28;20032;-46
2022/11/01 02:14:08;;;;;;;1.27;1.17;;;;;;;15.50;100.00;98980.00;5092948;28;20494;-46
2022/11/01 02:17:08;;;;;;;0.88;0.75;;;;;;;15.57;100.00;98982.53;5092602;28;20038;-47
2022/11/01 02:19:55;;;;;;;0.85;0.70;;;;;;;15.50;100.00;98965.97;5092985;28;20031;-45
2022/11/01 02:22:42;;;;;;;2.13;1.38;;;;;;;15.51;100.00;98951.69;5091605;28;20139;-45
2022/11/01 02:25:35;;;;;;;0.10;0.10;;;;;;;15.52;100.00;98958.63;5091476;28;20028;-46
2022/11/01 02:28:22;;;;;;;3.97;1.80;;;;;;;15.48;100.00;98962.75;5092706;28;20575;-46
2022/11/01 02:31:25;;;;;;;0.10;0.10;;;;;;;15.39;100.00;98970.16;5091322;28;20036;-45
2022/11/01 02:34:25;;;;;;;6.22;1.15;;;;;;;15.42;100.00;98963.63;5092558;28;20464;-46
2022/11/01 02:37:10;;;;;;;1.42;1.33;;;;;;;15.49;100.00;98970.47;5092509;28;20027;-46
2022/11/01 02:39:41;;;;;;;3.42;1.08;;;;;;;15.44;100.00;98969.50;5091198;28;20036;-46
2022/11/01 02:42:31;;;;;;;0.00;0.00;;;;;;;15.48;100.00;98975.97;5091159;28;20036;-46
2022/11/01 02:45:28;;;;;;;0.00;0.00;;;;;;;15.52;100.00;98982.41;5091104;28;20086;-46
2022/11/01 02:47:56;;;;;;;0.38;0.32;;;;;;;15.54;100.00;98967.13;5090684;28;20493;-46
2022/11/01 02:50:29;;;;;;;0.10;0.10;;;;;;;15.53;100.00;98979.56;5092232;28;20161;-46
2022/11/01 02:52:55;;;;;;;0.43;0.43;;;;;;;15.49;100.00;98981.03;5092284;28;20490;-46
2022/11/01 02:55:29;;;;;;;0.00;0.00;;;;;;;15.47;100.00;98982.28;5092234;28;20111;-46
2022/11/01 02:57:57;;;;;;;0.10;0.10;;;;;;;15.36;100.00;98984.66;5092148;28;20062;-46
2022/11/01 03:00:27;;;;;;;0.10;0.10;;;;;;;15.33;100.00;98982.47;5092101;28;20081;-46
2022/11/01 03:03:20;;;;;;;0.20;0.20;;;;;;;15.32;100.00;98977.41;5091149;28;20052;-45
2022/11/01 03:05:52;;;;;;;19.58;2.45;;;;;;;15.27;100.00;98985.19;5092097;28;20456;-46
2022/11/01 03:08:23;;;;;;;0.00;0.00;;;;;;;15.27;100.00;98988.66;5092007;28;20035;-47
2022/11/01 03:11:17;;;;;;;0.47;0.47;;;;;;;15.27;99.64;98995.75;5090718;28;20066;-46
2022/11/01 03:14:03;;;;;;;0.00;0.00;;;;;;;15.24;99.34;99004.16;5090675;28;20040;-46
2022/11/01 03:16:39;;;;;;;0.30;0.30;;;;;;;15.22;99.87;99000.91;5090448;28;20040;-47
2022/11/01 03:19:13;;;;;;;0.55;0.55;;;;;;;15.26;100.00;98997.59;5091889;28;20024;-46
2022/11/01 03:21:56;;;;;;;0.00;0.00;;;;;;;15.26;100.00;98987.03;5090653;28;20486;-46
2022/11/01 03:24:28;;;;;;;0.20;0.20;;;;;;;15.27;100.00;98987.81;5091906;28;20056;-46
2022/11/01 03:27:09;;;;;;;0.52;0.52;;;;;;;15.21;100.00;98986.06;5090529;28;20031;-46
2022/11/01 03:29:37;;;;;;;0.25;0.20;;;;;;;15.16;100.00;98982.25;5091871;28;20052;-46
2022/11/01 03:32:04;;;;;;;0.65;0.65;;;;;;;15.21;100.00;98988.72;5090495;28;20026;-47
2022/11/01 03:34:33;;;;;;;1.90;1.38;;;;;;;15.21;100.00;98994.00;5090533;28;20559;-46
2022/11/01 03:37:04;;;;;;;0.22;0.22;;;;;;;15.35;100.00;98991.00;5091701;28;20024;-47
2022/11/01 03:39:41;;;;;;;0.28;0.28;;;;;;;15.54;100.00;98997.03;5091780;28;20115;-45
2022/11/01 03:42:16;;;;;;;0.68;0.68;;;;;;;15.69;100.00;99001.88;5090444;28;20063;-46
2022/11/01 03:44:46;;;;;;;0.10;0.10;;;;;;;15.71;100.00;98991.88;5091738;28;20107;-46
2022/11/01 03:47:12;;;;;;;0.10;0.10;;;;;;;15.63;100.00;99002.78;5073918;28;20031;-46
2022/11/01 03:49:38;;;;;;;0.00;0.00;;;;;;;15.79;100.00;99006.66;5091885;28;20097;-46
2022/11/01 03:52:05;;;;;;;0.00;0.00;;;;;;;16.05;100.00;99009.97;5090472;28;20485;-46
2022/11/01 03:54:31;;;;;;;0.15;0.15;;;;;;;16.03;100.00;99001.44;5090292;28;20020;-46
2022/11/01 03:56:56;;;;;;;0.15;0.15;;;;;;;16.20;100.00;99001.56;5091532;28;20027;-46
2022/11/01 03:59:25;;;;;;;0.00;0.00;;;;;;;16.32;100.00;99015.66;5090323;28;20063;-46
2022/11/01 04:01:51;;;;;;;0.63;0.63;;;;;;;16.57;100.00;99018.06;5095405;28;20022;-46
2022/11/01 04:04:17;;;;;;;2.40;1.55;;;;;;;16.86;100.00;99010.22;5095670;28;20025;-46
2022/11/01 04:06:42;;;;;;;0.10;0.10;;;;;;;16.93;100.00;99018.84;5094032;28;20512;-46
2022/11/01 04:09:09;;;;;;;0.10;0.10;;;;;;;16.91;100.00;99013.78;5094291;28;20043;-46
2022/11/01 04:11:35;;;;;;;0.00;0.00;;;;;;;16.99;100.00;99019.78;5095442;28;20017;-46
2022/11/01 04:22:12;;;;;;;1.58;1.48;;;;;;;16.90;100.00;99021.97;5095127;28;20559;-46
2022/11/01 04:24:38;;;;;;;0.25;0.25;;;;;;;16.99;100.00;99025.88;5094996;28;20032;-46
2022/11/01 04:27:07;;;;;;;0.55;0.55;;;;;;;16.82;100.00;99030.28;5095035;28;20042;-45
2022/11/01 04:29:32;;;;;;;0.10;0.10;;;;;;;16.58;100.00;99030.28;5094910;28;20024;-45
2022/11/01 04:31:58;;;;;;;0.00;0.00;;;;;;;16.66;100.00;99027.28;5095219;28;20508;-46
2022/11/01 04:34:41;;;;;;;0.20;0.20;;;;;;;16.52;100.00;99033.81;5094856;28;20032;-45
2022/11/01 04:37:07;;;;;;;0.00;0.00;;;;;;;16.21;100.00;99032.31;5094725;28;20023;-45
2022/11/01 04:39:33;;;;;;;0.00;0.00;;;;;;;15.96;100.00;99030.66;5093435;28;20024;-45
2022/11/01 04:41:59;;;;;;;0.25;0.25;;;;;;;15.97;100.00;99034.91;5094713;28;20516;-46
2022/11/01 04:44:24;;;;;;;0.00;0.00;;;;;;;16.00;100.00;99034.47;5093383;28;20024;-46
2022/11/01 04:46:50;;;;;;;0.00;0.00;;;;;;;16.10;100.00;99031.28;5093404;28;20031;-46
2022/11/01 04:49:15;;;;;;;0.75;0.38;;;;;;;16.34;100.00;99034.75;5093258;28;20028;-46
2022/11/01 04:51:41;;;;;;;0.20;0.20;;;;;;;16.64;100.00;99024.06;5094416;28;20024;-46
2022/11/01 04:54:07;;;;;;;0.00;0.00;;;;;;;16.77;100.00;99028.28;5093187;28;20020;-47
2022/11/01 04:56:33;;;;;;;0.20;0.20;;;;;;;16.67;100.00;99033.38;5094420;28;20535;-46
2022/11/01 04:58:59;;;;;;;1.00;0.90;;;;;;;16.51;100.00;99027.72;5094276;28;20040;-46
2022/11/01 05:01:25;;;;;;;0.00;0.00;;;;;;;16.43;100.00;99030.72;5094369;28;20076;-47
2022/11/01 05:03:50;;;;;;;0.00;0.00;;;;;;;16.60;100.00;99032.69;5093062;28;20039;-46
2022/11/01 05:06:16;;;;;;;0.20;0.10;;;;;;;16.85;100.00;99035.13;5092918;28;20024;-47
2022/11/01 05:08:42;;;;;;;0.00;0.00;;;;;;;16.99;100.00;99028.53;5094221;28;20031;-47
2022/11/01 05:11:07;;;;;;;0.00;0.00;;;;;;;17.22;100.00;99030.31;5094031;28;20043;-47
2022/11/01 05:13:33;;;;;;;0.00;0.00;;;;;;;17.32;100.00;99030.50;5092814;28;20036;-45
2022/11/01 05:16:02;;;;;;;0.70;0.55;;;;;;;17.59;100.00;99040.59;5092720;28;20717;-46
2022/11/01 05:18:28;;;;;;;0.00;0.00;;;;;;;17.64;100.00;99040.66;5093638;28;20043;-46
2022/11/01 05:20:56;;;;;;;10.43;1.08;;;;;;;17.93;100.00;99043.34;5094175;28;20081;-46
2022/11/01 05:23:21;;;;;;;0.73;0.73;;;;;;;18.03;100.00;99040.84;5092654;28;20030;-46
2022/11/01 05:25:47;;;;;;;0.00;0.00;;;;;;;18.22;100.00;99045.94;5093875;28;20470;-48
2022/11/01 05:28:13;;;;;;;0.10;0.10;;;;;;;18.27;100.00;99046.00;5094072;28;20020;-46
2022/11/01 05:30:41;;;;;;;0.00;0.00;;;;;;;18.24;100.00;99041.19;5092432;28;20024;-46
2022/11/01 05:33:07;;;;;;;0.00;0.00;;;;;;;18.29;100.00;99041.25;5092423;28;20066;-46
2022/11/01 05:35:35;;;;;;;0.00;0.00;;;;;;;18.11;98.92;99036.97;5092341;28;20418;-46
2022/11/01 05:38:02;;;;;;;0.15;0.15;;;;;;;18.09;98.71;99045.22;5093627;28;20020;-46
2022/11/01 05:40:28;;;;;;;0.00;0.00;;;;;;;17.84;97.49;99052.72;5093501;28;20031;-46
2022/11/01 05:42:53;;;;;;;0.00;0.00;;;;;;;17.62;97.80;99053.38;5092252;28;20060;-47
2022/11/01 05:45:19;;;;;;;3.10;1.25;;;;;;;17.51;98.34;99051.56;5092192;28;20169;-46
2022/11/01 05:47:45;;;;;;;0.05;0.05;;;;;;;17.33;98.28;99056.00;5093443;28;20041;-46
2022/11/01 05:50:13;;;;;;;0.47;0.40;;;;;;;17.36;99.57;99066.16;5093376;28;20032;-46
2022/11/01 05:52:39;;;;;;;0.98;0.70;;;;;;;17.35;99.25;99063.75;5093311;28;20028;-46
2022/11/01 05:55:07;;;;;;;0.55;0.55;;;;;;;17.28;99.41;99073.66;5091994;28;20031;-46
2022/11/01 05:57:33;;;;;;;0.47;0.47;;;;;;;17.30;100.00;99080.34;5091808;28;20020;-46
2022/11/01 05:59:58;;;;;;;1.08;0.98;;;;;;;17.52;100.00;99074.41;5075094;28;20046;-46
2022/11/01 06:02:24;;;;;;;1.95;1.20;;;;;;;17.74;100.00;99072.69;5093131;28;20050;-46
2022/11/01 06:04:50;;;;;;;0.25;0.25;;;;;;;17.83;100.00;99075.81;5093098;28;20031;-46
2022/11/01 06:07:15;;;;;;;0.47;0.47;;;;;;;17.72;99.33;99079.28;5091782;28;20039;-45
2022/11/01 06:09:41;;;;;;;0.00;0.00;;;;;;;17.56;98.51;99084.31;5093055;28;20103;-45
2022/11/01 06:12:07;;;;;;;1.25;1.00;;;;;;;17.51;98.97;99086.06;5092948;28;20020;-45
2022/11/01 06:14:32;;;;;;;0.00;0.00;;;;;;;17.49;98.96;99088.16;5091641;28;20032;-45
2022/11/01 06:16:58;;;;;;;0.03;0.03;;;;;;;17.44;99.10;99098.66;5092722;28;20129;-46
2022/11/01 06:19:24;;;;;;;0.00;0.00;;;;;;;17.44;99.34;99099.47;5091478;28;20081;-45
2022/11/01 06:21:49;;;;;;;0.00;0.00;;;;;;;17.46;99.28;99109.84;5092616;28;20027;-45
2022/11/01 06:24:15;;;;;;;0.43;0.43;;;;;;;17.44;98.91;99109.28;5092224;28;20055;-45
2022/11/01 06:26:40;;;;;;;2.60;1.20;;;;;;;17.43;99.34;99115.63;5092673;28;20035;-46
2022/11/01 06:29:06;;;;;;;0.00;0.00;;;;;;;17.40;99.19;99116.09;5092737;28;20062;-45
2022/11/01 06:31:32;;;;;;;0.52;0.52;;;;;;;17.33;99.22;99113.56;5091264;28;20028;-45
2022/11/01 06:33:58;;;;;;;0.10;0.10;;;;;;;17.19;99.36;99110.38;5092595;28;20036;-45
2022/11/01 06:36:23;;;;;;;0.40;0.40;;;;;;;17.14;99.93;99112.91;5091126;28;20019;-45
2022/11/01 06:38:49;;;;;;;0.00;0.00;;;;;;;16.95;99.85;99110.38;5091118;28;20016;-45
2022/11/01 06:41:15;;;;;;;0.10;0.10;;;;;;;16.81;100.00;99110.81;5092364;28;20039;-45
2022/11/01 06:43:41;;;;;;;0.00;0.00;;;;;;;16.80;100.00;99114.50;5091101;28;20511;-45
2022/11/01 06:46:07;;;;;;;0.00;0.00;;;;;;;16.78;100.00;99125.31;5091043;28;20122;-46
2022/11/01 06:48:33;;;;;;;0.10;0.10;;;;;;;16.75;100.00;99123.13;5092335;28;20024;-46
2022/11/01 06:51:02;;;;;;;0.00;0.00;;;;;;;16.59;99.94;99127.28;5092590;28;20032;-46
2022/11/01 06:53:28;;;;;;;0.98;0.50;;;;;;;16.62;100.00;99126.84;5092521;28;20485;-46
2022/11/01 06:55:57;;;;;;;17.52;1.25;;;;;;;16.57;100.00;99132.78;5092201;28;20024;-45
2022/11/01 06:58:22;;;;;;;0.28;0.28;;;;;;;16.51;99.92;99125.75;5092121;28;20048;-46
2022/11/01 07:00:48;;;;;;;0.00;0.00;;;;;;;16.43;99.37;99133.25;5092211;28;20085;-46
2022/11/01 07:03:14;;;;;;;0.15;0.13;;;;;;;16.39;99.78;99143.47;5092391;28;20028;-46
2022/11/01 07:05:40;;;;;;;0.00;0.00;;;;;;;16.43;100.00;99146.47;5092093;28;20513;-46
2022/11/01 07:08:09;;;;;;;8.80;1.45;;;;;;;16.55;100.00;99148.13;5092156;28;20024;-45
2022/11/01 07:10:36;;;;;;;0.10;0.10;;;;;;;16.67;100.00;99153.44;5090759;28;20486;-46
2022/11/01 07:13:04;;;;;;;0.05;0.05;;;;;;;16.74;100.00;99150.66;5092103;28;20016;-45
2022/11/01 07:15:30;;;;;;;0.00;0.00;;;;;;;16.70;100.00;99157.47;5090779;28;20024;-46
2022/11/01 07:18:02;;;;;;;0.00;0.00;;;;;;;16.74;100.00;99161.28;5090300;28;20044;-46
2022/11/01 07:20:30;;;;;;;0.00;0.00;;;;;;;16.74;100.00;99171.88;5091900;28;20020;-45
2022/11/01 07:23:02;;;;;;;0.35;0.35;;;;;;;16.73;100.00;99176.38;5090586;28;20081;-45
2022/11/01 07:25:29;;;;;;;0.00;0.00;;;;;;;16.58;99.49;99187.41;5091880;28;20036;-45
2022/11/01 07:27:55;;;;;;;0.77;0.73;;;;;;;16.60;100.00;99179.25;5090539;28;20095;-45
2022/11/01 07:30:21;;;;;;;0.00;0.00;;;;;;;16.57;100.00;99188.44;5090631;28;20055;-45
2022/11/01 07:32:47;;;;;;;0.00;0.00;;;;;;;16.46;99.79;99176.00;5090540;28;20032;-45
2022/11/01 07:35:13;;;;;;;0.00;0.00;;;;;;;16.55;100.00;99195.00;5093786;28;20183;-45
2022/11/01 07:37:39;;;;;;;0.52;0.52;;;;;;;16.93;100.00;99186.69;5095895;28;20028;-45
2022/11/01 07:40:05;;;;;;;0.10;0.10;;;;;;;17.29;100.00;99184.84;5094618;28;20532;-45
2022/11/01 07:42:31;;;;;;;0.00;0.00;;;;;;;17.45;100.00;99199.25;5094542;28;20111;-45
2022/11/01 07:44:56;;;;;;;0.00;0.00;;;;;;;17.40;100.00;99203.66;5095824;28;20165;-45
2022/11/01 07:47:22;;;;;;;0.05;0.05;;;;;;;17.41;99.92;99207.94;5095751;28;20025;-45
2022/11/01 07:49:49;;;;;;;0.10;0.10;;;;;;;17.37;99.74;99218.19;5095745;28;20101;-45
2022/11/01 07:52:15;;;;;;;0.45;0.45;;;;;;;17.27;99.58;99218.75;5095709;28;20363;-45
2022/11/01 07:54:40;;;;;;;0.00;0.00;;;;;;;17.21;99.45;99214.38;5095678;28;20486;-45
2022/11/01 07:57:07;;;;;;;0.00;0.00;;;;;;;17.17;99.78;99219.34;5094304;28;20028;-45
2022/11/01 07:59:33;;;;;;;0.00;0.00;;;;;;;17.41;100.00;99218.53;5095446;28;20393;-45
2022/11/01 08:01:59;;;;;;;0.00;0.00;;;;;;;17.72;100.00;99220.78;5095498;28;20508;-45
2022/11/01 08:04:24;;;;;;;1.08;0.90;;;;;;;18.27;100.00;99221.34;5095410;28;20013;-45
2022/11/01 08:06:50;;;;;;;0.20;0.20;;;;;;;18.74;100.00;99215.81;5095416;28;20026;-45
2022/11/01 08:09:16;;;;;;;0.30;0.30;;;;;;;18.84;99.25;99223.19;5095335;28;20448;-45
2022/11/01 08:11:41;;;;;;;0.00;0.00;;;;;;;18.91;98.43;99234.47;5093988;28;20028;-45
2022/11/01 08:14:08;;;;;;;2.30;1.35;;;;;;;18.96;98.09;99245.19;5095303;28;20024;-45
2022/11/01 08:16:34;;;;;;;0.10;0.10;;;;;;;18.91;97.92;99247.75;5094888;28;20128;-46
2022/11/01 08:19:00;;;;;;;0.35;0.35;;;;;;;18.80;97.14;99251.31;5095182;28;20028;-45
2022/11/01 08:21:26;;;;;;;0.00;0.00;;;;;;;18.58;96.75;99256.50;5093807;28;20032;-45
2022/11/01 08:23:51;;;;;;;0.10;0.10;;;;;;;18.60;97.85;99249.09;5095108;28;20020;-45
2022/11/01 08:26:17;;;;;;;0.00;0.00;;;;;;;18.87;98.67;99249.28;5093689;28;20082;-45
2022/11/01 08:28:43;;;;;;;0.00;0.00;;;;;;;19.18;98.41;99252.47;5095025;28;20078;-45
2022/11/01 08:31:09;;;;;;;0.00;0.00;;;;;;;19.56;97.77;99255.16;5094883;28;20517;-46
2022/11/01 08:33:35;;;;;;;0.57;0.45;;;;;;;19.78;97.16;99261.59;5093578;28;20111;-45
2022/11/01 08:36:01;;;;;;;0.10;0.10;;;;;;;19.95;97.29;99262.34;5094847;28;20095;-46
2022/11/01 08:38:27;;;;;;;0.32;0.13;;;;;;;20.26;97.69;99260.03;5093457;28;20020;-43
2022/11/01 08:40:54;;;;;;;0.13;0.10;;;;;;;20.65;97.61;99260.75;5095008;28;20505;-44
2022/11/01 08:43:20;;;;;;;0.00;0.00;;;;;;;20.79;96.52;99263.03;5094603;28;20024;-43
2022/11/01 08:45:46;;;;;;;0.00;0.00;;;;;;;20.70;94.47;99271.44;5093913;28;20027;-44
2022/11/01 08:48:12;;;;;;;0.00;0.00;;;;;;;20.45;93.80;99274.66;5094561;28;20016;-43
2022/11/01 08:50:38;;;;;;;0.65;0.55;;;;;;;20.19;94.18;99273.56;5093219;28;20020;-43
2022/11/01 08:53:05;;;;;;;0.00;0.00;;;;;;;20.13;94.79;99272.69;5094515;28;20397;-43
2022/11/01 08:55:31;;;;;;;0.55;0.55;;;;;;;20.19;94.24;99278.88;5094437;28;20024;-44
2022/11/01 08:57:58;;;;;;;0.05;0.05;;;;;;;20.34;94.70;99283.59;5076247;28;20115;-44
2022/11/01 09:00:24;;;;;;;0.20;0.20;;;;;;;20.38;94.49;99289.22;5094335;28;20032;-43
2022/11/01 09:02:50;;;;;;;0.50;0.38;;;;;;;20.37;93.60;99292.97;5094339;28;20016;-44
2022/11/01 09:05:16;;;;;;;0.00;0.00;;;;;;;20.24;94.33;99288.81;5094263;28;20111;-43
2022/11/01 09:07:42;;;;;;;0.00;0.00;;;;;;;20.17;94.64;99298.84;5092995;28;20031;-44
2022/11/01 09:10:09;;;;;;;0.40;0.25;;;;;;;20.36;96.42;99313.47;5092898;28;20028;-44
2022/11/01 09:12:36;;;;;;;0.00;0.00;;;;;;;20.55;96.99;99305.97;5094197;28;20401;-44
2022/11/01 09:15:03;;;;;;;1.00;1.00;;;;;;;20.68;97.29;99310.09;5094341;28;20487;-44
2022/11/01 09:17:29;;;;;;;0.10;0.10;;;;;;;21.04;99.33;99307.78;5093757;28;20036;-44
2022/11/01 09:19:54;;;;;;;0.15;0.15;;;;;;;21.52;100.00;99306.84;5093977;28;20116;-44
2022/11/01 09:22:21;;;;;;;4.40;0.60;;;;;;;21.58;98.52;99313.03;5093940;28;20107;-44
2022/11/01 09:24:46;;;;;;;0.00;0.00;;;;;;;21.49;97.75;99315.38;5094236;28;20012;-44
2022/11/01 09:27:12;;;;;;;0.00;0.00;;;;;;;21.52;97.81;99311.41;5093818;28;20509;-44
2022/11/01 09:29:37;;;;;;;0.00;0.00;;;;;;;21.37;96.40;99316.59;5092528;28;20501;-44
2022/11/01 09:32:05;;;;;;;0.00;0.00;;;;;;;21.22;96.09;99311.94;5093818;28;20028;-44
2022/11/01 09:34:31;;;;;;;0.00;0.00;;;;;;;21.18;96.81;99316.19;5093709;28;20028;-44
2022/11/01 09:36:57;;;;;;;0.05;0.05;;;;;;;21.16;97.37;99316.44;5093632;28;20111;-44
2022/11/01 09:39:22;;;;;;;0.13;0.08;;;;;;;21.04;97.61;99315.78;5092296;28;20028;-44
2022/11/01 09:41:54;;;;;;;0.80;0.43;;;;;;;21.02;98.18;99310.69;5093607;28;20020;-44
2022/11/01 09:44:27;;;;;;;7.22;0.60;;;;;;;21.20;98.05;99312.19;5092285;28;20125;-44
2022/11/01 09:47:01;;;;;;;0.65;0.57;;;;;;;21.44;97.57;99315.34;5093519;28;20024;-44
2022/11/01 09:49:32;;;;;;;1.07;1.07;;;;;;;21.65;96.80;99324.31;5075329;28;20035;-44
2022/11/01 09:51:58;;;;;;;0.52;0.52;;;;;;;21.63;96.35;99325.63;5093467;28;20433;-44
2022/11/01 09:54:25;;;;;;;1.17;0.93;;;;;;;21.40;97.55;99324.09;5093296;28;20444;-44
2022/11/01 09:57:17;;;;;;;1.42;1.33;;;;;;;21.43;99.31;99320.94;5092778;28;20028;-44
2022/11/01 10:00:27;;;;;;;0.10;0.10;;;;;;;21.67;98.03;99324.03;5093326;28;20082;-44
2022/11/01 10:03:04;;;;;;;0.10;0.10;;;;;;;22.56;97.60;99321.53;5083956;28;20065;-44
2022/11/01 10:06:06;;;;;;;0.50;0.05;;;;;;;23.20;96.52;99321.13;5091762;28;20123;-44
2022/11/01 10:08:50;;;;;;;0.00;0.00;;;;;;;23.93;94.76;99328.03;5091974;28;20035;-44
2022/11/01 10:11:43;;;;;;;0.32;0.25;;;;;;;24.63;92.31;99329.91;5093035;28;20034;-44
2022/11/01 10:14:41;;;;;;;1.25;0.85;;;;;;;24.96;88.97;99322.97;5093047;28;20051;-44
2022/11/01 10:17:27;;;;;;;0.10;0.10;;;;;;;25.12;82.88;99321.78;5092651;28;20075;-44
2022/11/01 10:19:53;;;;;;;0.00;0.00;;;;;;;25.44;80.02;99314.31;5091594;28;20058;-45
2022/11/01 10:22:29;;;;;;;0.28;0.28;;;;;;;25.71;80.28;99319.13;5092931;28;20471;-44
2022/11/01 10:25:01;;;;;;;1.27;1.17;;;;;;;26.23;80.31;99314.00;5092789;28;20054;-44
2022/11/01 10:27:53;;;;;;;2.05;1.60;;;;;;;27.01;79.11;99311.88;5091726;28;20038;-44
2022/11/01 10:30:19;;;;;;;2.22;1.98;;;;;;;27.37;77.01;99311.31;5092699;28;20035;-45
2022/11/01 10:32:57;;;;;;;1.08;1.00;;;;;;;27.59;69.95;99314.13;5092627;28;20048;-44
2022/11/01 10:35:29;;;;;;;0.38;0.38;;;;;;;27.44;66.62;99309.81;5092624;28;20028;-45
2022/11/01 10:38:13;;;;;;;2.25;1.85;;;;;;;27.27;68.77;99310.38;5092527;28;20024;-45
2022/11/01 10:41:14;;;;;;;1.52;1.42;;;;;;;27.19;68.09;99302.94;5091372;28;20071;-45
2022/11/01 10:43:48;;;;;;;0.43;0.43;;;;;;;27.41;68.52;99302.31;5089597;28;20047;-45
2022/11/01 10:46:21;;;;;;;1.23;0.77;;;;;;;28.08;69.95;99301.88;5092445;28;20043;-45
2022/11/01 10:48:55;;;;;;;0.17;0.10;;;;;;;28.59;66.07;99302.69;5091057;28;20509;-45
2022/11/01 10:51:24;;;;;;;0.10;0.10;;;;;;;28.00;59.15;99299.09;5092369;28;20031;-45
2022/11/01 10:53:54;;;;;;;0.00;0.00;;;;;;;27.69;61.21;99295.06;5092343;28;20031;-45
2022/11/01 10:56:25;;;;;;;0.00;0.00;;;;;;;27.04;62.11;99292.41;5092215;28;20086;-45
2022/11/01 10:59:10;;;;;;;0.10;0.10;;;;;;;26.92;62.70;99297.44;5092241;28;20028;-45
2022/11/01 11:01:43;;;;;;;0.00;0.00;;;;;;;27.07;61.38;99295.31;5090893;28;20042;-45
2022/11/01 11:04:14;;;;;;;0.00;0.00;;;;;;;26.78;62.29;99295.50;5092414;28;20461;-45
2022/11/01 11:06:41;;;;;;;0.45;0.10;;;;;;;26.76;62.54;99299.56;5090823;28;20035;-45
2022/11/01 11:09:27;;;;;;;0.40;0.40;;;;;;;26.46;58.64;99290.81;5091654;28;20024;-45
2022/11/01 11:11:58;;;;;;;0.20;0.20;;;;;;;26.18;62.32;99297.91;5090784;28;20124;-44
2022/11/01 11:14:26;;;;;;;2.33;1.52;;;;;;;25.92;61.36;99295.56;5092090;28;20028;-44
2022/11/01 11:16:56;;;;;;;0.65;0.65;;;;;;;25.82;62.83;99288.38;5090370;28;20497;-45
2022/11/01 11:19:37;;;;;;;0.30;0.30;;;;;;;25.98;64.91;99297.09;5074003;28;20509;-44
2022/11/01 11:22:07;;;;;;;0.17;0.17;;;;;;;26.39;65.44;99296.56;5091968;28;20036;-44
2022/11/01 11:24:36;;;;;;;0.00;0.00;;;;;;;27.14;64.90;99289.53;5090955;28;20482;-45
2022/11/01 11:27:10;;;;;;;0.65;0.65;;;;;;;28.05;64.97;99282.78;5090522;28;20524;-45
2022/11/01 11:29:39;;;;;;;0.45;0.40;;;;;;;29.43;61.32;99278.81;5092241;28;20375;-45
2022/11/01 11:32:17;;;;;;;0.13;0.13;;;;;;;30.47;62.28;99272.94;5090467;28;20051;-45
2022/11/01 11:34:50;;;;;;;1.08;0.65;;;;;;;30.10;59.55;99269.66;5090817;28;20055;-45
2022/11/01 11:37:22;;;;;;;2.83;0.65;;;;;;;29.86;60.68;99267.38;5091712;28;20026;-45
2022/11/01 11:40:15;;;;;;;0.10;0.10;;;;;;;28.85;57.86;99270.47;5090439;28;20125;-45
2022/11/01 11:42:43;;;;;;;0.28;0.20;;;;;;;28.90;59.10;99266.09;5091723;28;20133;-45
2022/11/01 11:45:24;;;;;;;0.00;0.00;;;;;;;28.99;60.07;99266.94;5091688;28;20020;-45
2022/11/01 11:47:52;;;;;;;0.00;0.00;;;;;;;28.66;60.12;99267.19;5091727;28;20044;-45
2022/11/01 11:50:20;;;;;;;3.00;0.35;;;;;;;28.10;55.15;99263.81;5091642;28;20039;-45
2022/11/01 11:52:59;;;;;;;0.10;0.10;;;;;;;27.55;58.21;99253.00;5090324;28;20032;-44